Time;durP1;ratioP1;P1;durP2;ratioP2;P2;SDS_P1;SDS_P2;PMS_P1;PMS_P2;Temp;Humidity;BMP_temperature;BMP_pressure;BME280_temperature;BME280_humidity;BME280_pressure;Samples;Min_cycle;Max_cycle;Signal;HPM_P1;HPM_P2
2023/05/17 00:01:19;;;;;;;6.10;3.57;;;;;;;15.39;82.04;98970.19;5038156;28;20251;-70
2023/05/17 00:03:45;;;;;;;6.60;3.17;;;;;;;15.19;82.07;98965.25;5035050;28;20657;-70
2023/05/17 00:06:12;;;;;;;4.27;3.03;;;;;;;15.11;83.44;98972.84;5016880;28;20662;-70
2023/05/17 00:08:39;;;;;;;3.67;3.00;;;;;;;14.82;83.87;98973.84;5018362;28;20197;-70
2023/05/17 00:11:07;;;;;;;3.43;3.13;;;;;;;14.68;85.29;98959.94;5018161;28;20587;-71
2023/05/17 00:13:34;;;;;;;4.50;2.90;;;;;;;14.78;85.38;98978.84;5015030;28;20636;-71
2023/05/17 00:16:01;;;;;;;5.63;2.90;;;;;;;14.66;85.70;98975.38;5015187;28;20198;-70
2023/05/17 00:18:27;;;;;;;6.60;3.97;;;;;;;14.73;86.24;98978.75;5015328;28;20225;-70
2023/05/17 00:20:54;;;;;;;3.73;3.20;;;;;;;14.79;86.66;98988.50;5014857;28;20205;-70
2023/05/17 00:23:21;;;;;;;5.03;3.10;;;;;;;14.68;87.00;98978.66;5014890;28;20198;-70
2023/05/17 00:25:48;;;;;;;9.33;3.47;;;;;;;14.79;87.35;98980.47;5013813;28;20193;-70
2023/05/17 00:28:16;;;;;;;4.17;3.47;;;;;;;14.83;87.74;98978.94;5014560;28;20705;-70
2023/05/17 00:30:42;;;;;;;4.20;3.67;;;;;;;14.84;87.89;98977.09;5015112;28;20237;-70
2023/05/17 00:33:09;;;;;;;7.00;3.80;;;;;;;14.73;88.45;98973.41;5014805;28;20678;-70
2023/05/17 00:35:36;;;;;;;4.17;3.87;;;;;;;14.77;88.95;98973.72;5014826;28;20257;-70
2023/05/17 00:38:03;;;;;;;4.90;3.80;;;;;;;14.50;91.02;98964.59;5014779;28;20226;-70
2023/05/17 00:40:29;;;;;;;4.00;3.70;;;;;;;14.32;92.37;98957.53;5014653;28;20248;-70
2023/05/17 00:42:56;;;;;;;5.17;4.00;;;;;;;14.52;92.59;98967.84;5014566;28;20198;-70
2023/05/17 00:45:24;;;;;;;4.07;3.67;;;;;;;14.58;92.42;98967.72;5014725;28;20197;-70
2023/05/17 00:47:51;;;;;;;4.77;3.93;;;;;;;14.63;91.89;98949.09;5014282;28;20260;-70
2023/05/17 00:50:18;;;;;;;6.00;4.33;;;;;;;14.51;92.85;98943.00;5014452;28;20264;-70
2023/05/17 00:52:46;;;;;;;5.93;4.23;;;;;;;14.43;94.01;98934.50;5014614;28;20642;-70
2023/05/17 00:55:12;;;;;;;6.90;4.70;;;;;;;14.41;94.36;98933.91;5014304;28;20190;-70
2023/05/17 00:57:40;;;;;;;5.90;4.63;;;;;;;14.50;94.31;98930.66;5013996;28;20455;-70
2023/05/17 01:00:08;;;;;;;5.20;4.80;;;;;;;14.61;94.31;98940.53;5014221;28;20260;-70
2023/05/17 01:02:36;;;;;;;5.93;5.47;;;;;;;14.60;94.27;98941.59;5014364;28;20193;-70
2023/05/17 01:05:04;;;;;;;6.20;5.10;;;;;;;14.56;94.22;98943.09;5027712;28;20263;-71
2023/05/17 01:07:30;;;;;;;5.57;5.13;;;;;;;14.62;94.36;98952.03;5033680;28;20205;-71
2023/05/17 01:09:58;;;;;;;5.73;5.20;;;;;;;14.59;94.03;98934.59;5033920;28;20193;-70
2023/05/17 01:12:36;;;;;;;7.23;5.50;;;;;;;14.64;93.88;98945.41;5033578;28;20251;-71
2023/05/17 01:15:13;;;;;;;5.70;4.70;;;;;;;14.66;94.23;98943.31;5033791;28;20188;-70
2023/05/17 01:17:50;;;;;;;5.60;5.10;;;;;;;14.72;94.21;98947.72;5033898;28;20782;-70
2023/05/17 01:20:25;;;;;;;5.50;4.50;;;;;;;14.68;94.41;98937.72;5033425;28;20185;-70
2023/05/17 01:23:10;;;;;;;6.67;4.67;;;;;;;14.78;93.73;98954.78;5032279;28;20196;-70
2023/05/17 01:25:50;;;;;;;5.57;5.07;;;;;;;14.83;93.99;98948.75;5033969;28;20185;-70
2023/05/17 01:28:20;;;;;;;5.30;4.90;;;;;;;14.91;93.63;98951.84;5033726;28;20216;-70
2023/05/17 01:30:50;;;;;;;5.40;4.97;;;;;;;14.93;93.49;98943.59;5033489;28;20225;-70
2023/05/17 01:33:18;;;;;;;5.47;5.00;;;;;;;14.94;93.30;98931.84;5033478;28;20254;-70
2023/05/17 01:35:44;;;;;;;6.23;5.70;;;;;;;14.85;93.45;98899.31;5033061;28;20198;-70
2023/05/17 01:38:11;;;;;;;6.97;5.60;;;;;;;15.03;93.37;98917.84;5033378;28;20217;-70
2023/05/17 01:40:55;;;;;;;10.03;5.83;;;;;;;15.09;93.02;98916.09;5033449;28;20267;-70
2023/05/17 01:43:35;;;;;;;11.83;7.30;;;;;;;14.99;93.36;98924.72;5033061;28;20648;-70
2023/05/17 01:46:12;;;;;;;10.47;7.90;;;;;;;15.03;93.76;98922.41;5032972;28;20177;-70
2023/05/17 01:48:44;;;;;;;8.23;7.43;;;;;;;15.02;93.55;98921.59;5032852;28;20244;-70
2023/05/17 01:51:18;;;;;;;8.00;7.37;;;;;;;14.97;93.75;98921.50;5033208;28;20189;-69
2023/05/17 01:53:48;;;;;;;7.43;6.73;;;;;;;14.92;93.78;98921.41;5032881;28;20628;-69
2023/05/17 01:56:19;;;;;;;7.07;6.43;;;;;;;14.92;94.09;98917.91;5032817;28;20205;-69
2023/05/17 01:58:48;;;;;;;6.40;6.00;;;;;;;14.94;94.74;98913.94;5033078;28;20271;-69
2023/05/17 02:01:18;;;;;;;6.27;5.67;;;;;;;14.97;94.43;98928.69;5032774;28;20201;-69
2023/05/17 02:03:48;;;;;;;6.13;5.53;;;;;;;14.99;94.09;98919.38;5030186;28;20202;-70
2023/05/17 02:06:15;;;;;;;8.00;5.60;;;;;;;15.06;93.82;98928.09;5013249;28;20213;-70
2023/05/17 02:08:41;;;;;;;6.67;6.07;;;;;;;15.01;93.27;98917.28;5013158;28;20602;-70
2023/05/17 02:11:08;;;;;;;5.80;5.30;;;;;;;15.03;93.55;98923.19;5012982;28;20189;-70
2023/05/17 02:13:36;;;;;;;10.47;6.10;;;;;;;15.02;94.59;98916.25;5012728;28;20728;-70
2023/05/17 02:16:05;;;;;;;7.37;6.10;;;;;;;14.96;94.37;98917.16;5012560;28;20725;-70
2023/05/17 02:18:33;;;;;;;7.53;6.67;;;;;;;14.95;95.35;98926.25;5012814;28;20694;-70
2023/05/17 02:21:00;;;;;;;8.50;6.47;;;;;;;14.88;95.96;98928.28;5012769;28;20202;-71
2023/05/17 02:23:27;;;;;;;7.50;6.90;;;;;;;14.86;96.57;98933.03;5013059;28;20550;-70
2023/05/17 02:25:54;;;;;;;7.90;6.73;;;;;;;14.80;97.41;98931.31;5012789;28;20622;-70
2023/05/17 02:28:21;;;;;;;11.87;7.07;;;;;;;14.81;97.29;98930.25;5011332;28;20748;-70
2023/05/17 02:30:47;;;;;;;10.00;6.10;;;;;;;14.82;96.62;98923.84;5012325;28;20222;-70
2023/05/17 02:33:15;;;;;;;8.67;6.40;;;;;;;14.87;97.00;98923.94;5012766;28;20256;-69
2023/05/17 02:35:42;;;;;;;11.50;7.27;;;;;;;14.84;96.61;98921.78;5011460;28;20764;-71
2023/05/17 02:38:09;;;;;;;10.63;6.80;;;;;;;14.83;96.76;98928.16;5012650;28;20279;-71
2023/05/17 02:40:35;;;;;;;10.77;7.30;;;;;;;14.77;97.07;98939.81;5012287;28;20201;-70
2023/05/17 02:43:02;;;;;;;11.00;7.17;;;;;;;14.50;97.57;98895.91;5012540;28;20198;-71
2023/05/17 02:45:29;;;;;;;13.73;7.60;;;;;;;14.75;97.41;98939.22;5012602;28;20204;-70
2023/05/17 02:47:55;;;;;;;11.00;7.43;;;;;;;14.75;97.78;98933.88;5012563;28;20573;-71
2023/05/17 02:50:24;;;;;;;11.00;7.47;;;;;;;14.77;97.60;98942.47;5012433;28;20260;-71
2023/05/17 02:52:50;;;;;;;8.40;7.60;;;;;;;14.83;97.73;98948.75;5012444;28;20198;-71
2023/05/17 02:55:17;;;;;;;10.33;7.00;;;;;;;14.86;97.12;98943.72;5012458;28;20198;-71
2023/05/17 02:57:44;;;;;;;12.17;8.93;;;;;;;14.88;96.89;98948.84;5011958;28;20655;-70
2023/05/17 03:00:12;;;;;;;8.50;7.63;;;;;;;14.90;96.81;98947.56;5012227;28;20732;-71
2023/05/17 03:02:38;;;;;;;9.80;7.30;;;;;;;14.94;97.17;98953.22;5012407;28;20244;-71
2023/05/17 03:05:07;;;;;;;8.57;7.50;;;;;;;14.96;96.85;98953.81;5025946;28;20255;-71
2023/05/17 03:07:35;;;;;;;9.27;8.13;;;;;;;14.92;95.72;98953.50;5032043;28;20197;-70
2023/05/17 03:10:01;;;;;;;9.73;7.23;;;;;;;14.95;96.26;98958.34;5031933;28;20197;-71
2023/05/17 03:12:28;;;;;;;11.27;7.70;;;;;;;14.95;96.38;98954.88;5032017;28;20723;-69
2023/05/17 03:14:55;;;;;;;13.63;7.60;;;;;;;14.89;95.78;98964.66;5032077;28;20193;-69
2023/05/17 03:17:21;;;;;;;12.80;7.77;;;;;;;14.94;96.50;98967.44;5031460;28;20189;-69
2023/05/17 03:19:48;;;;;;;9.10;7.47;;;;;;;14.95;96.64;98974.38;5031646;28;20677;-70
2023/05/17 03:22:15;;;;;;;10.07;7.50;;;;;;;14.96;96.35;98980.56;5031430;28;20670;-70
2023/05/17 03:24:43;;;;;;;10.77;8.73;;;;;;;14.79;97.19;98987.69;5031870;28;20244;-70
2023/05/17 03:27:10;;;;;;;12.10;8.70;;;;;;;14.70;97.64;98989.09;5031787;28;20201;-70
2023/05/17 03:29:36;;;;;;;13.80;8.43;;;;;;;14.65;98.04;98997.81;5031830;28;20271;-69
2023/05/17 03:32:03;;;;;;;12.93;8.97;;;;;;;14.66;99.13;98990.63;5031423;28;20730;-70
2023/05/17 03:34:30;;;;;;;9.97;8.83;;;;;;;14.60;99.11;98987.03;5031816;28;20202;-70
2023/05/17 03:36:57;;;;;;;10.83;8.77;;;;;;;14.61;99.28;98988.66;5031787;28;20723;-70
2023/05/17 03:39:23;;;;;;;9.27;8.30;;;;;;;14.57;99.63;98987.47;5031782;28;20220;-70
2023/05/17 03:41:52;;;;;;;12.10;8.17;;;;;;;14.59;99.81;98996.06;5031573;28;20209;-70
2023/05/17 03:44:19;;;;;;;13.77;8.73;;;;;;;14.70;100.00;99005.94;5030367;28;20265;-69
2023/05/17 03:46:46;;;;;;;14.07;7.60;;;;;;;14.71;99.18;98994.19;5032815;28;20190;-69
2023/05/17 03:49:12;;;;;;;13.03;8.23;;;;;;;14.72;99.34;98998.53;5035078;28;20682;-70
2023/05/17 03:51:41;;;;;;;14.63;8.33;;;;;;;14.77;99.06;99001.28;5035541;28;20193;-69
2023/05/17 03:54:07;;;;;;;11.87;8.00;;;;;;;14.82;99.62;99004.06;5035739;28;20196;-70
2023/05/17 03:56:34;;;;;;;13.10;7.50;;;;;;;14.89;98.95;99002.09;5035355;28;20711;-69
2023/05/17 03:59:02;;;;;;;8.27;7.20;;;;;;;14.96;99.25;98997.41;5035231;28;20229;-70
2023/05/17 04:01:29;;;;;;;10.37;8.10;;;;;;;15.06;99.11;99005.66;5035126;28;20235;-69
2023/05/17 04:03:56;;;;;;;12.57;6.63;;;;;;;15.10;98.03;98995.28;5030890;28;20194;-71
2023/05/17 04:06:22;;;;;;;12.80;7.47;;;;;;;15.10;97.68;99001.47;5015367;28;20201;-69
2023/05/17 04:08:50;;;;;;;11.40;6.73;;;;;;;15.08;97.59;98995.50;5015022;28;20260;-69
2023/05/17 04:11:22;;;;;;;19.17;8.43;;;;;;;15.15;98.01;98998.09;5014879;28;20210;-70
2023/05/17 04:13:49;;;;;;;20.57;8.40;;;;;;;15.19;98.04;99002.72;5015539;28;20225;-70
2023/05/17 04:16:17;;;;;;;15.73;8.40;;;;;;;15.32;98.26;99007.78;5013990;28;20198;-70
2023/05/17 04:18:44;;;;;;;10.73;7.33;;;;;;;15.42;97.06;99007.19;5015208;28;20221;-70
2023/05/17 04:21:11;;;;;;;12.87;8.30;;;;;;;15.50;96.49;99004.97;5015038;28;20376;-70
2023/05/17 04:23:37;;;;;;;15.33;8.63;;;;;;;15.56;95.84;99008.56;5015057;28;20256;-70
2023/05/17 04:26:05;;;;;;;8.23;7.53;;;;;;;15.64;96.27;99006.28;5014842;28;20260;-69
2023/05/17 04:28:33;;;;;;;13.17;8.33;;;;;;;15.73;95.84;99004.84;5014939;28;20194;-70
2023/05/17 04:31:00;;;;;;;19.87;8.47;;;;;;;15.90;95.95;98994.97;5014950;28;20232;-69
2023/05/17 04:33:28;;;;;;;7.60;5.40;;;;;;;16.18;98.52;98999.47;5014559;28;20563;-68
2023/05/17 04:35:55;;;;;;;9.47;7.50;;;;;;;16.66;95.88;98993.50;5015069;28;20194;-70
2023/05/17 04:38:22;;;;;;;8.20;7.40;;;;;;;17.10;92.04;99001.34;5014829;28;20300;-68
2023/05/17 04:40:49;;;;;;;12.53;7.77;;;;;;;17.14;89.11;98986.34;5014762;28;20249;-68
2023/05/17 04:43:16;;;;;;;7.73;6.63;;;;;;;17.23;88.21;99000.16;5014596;28;20198;-68
2023/05/17 04:45:43;;;;;;;11.40;6.53;;;;;;;17.35;89.82;98996.28;5014279;28;20249;-68
2023/05/17 04:48:10;;;;;;;11.03;6.73;;;;;;;17.87;89.04;98996.56;5014390;28;20278;-68
2023/05/17 04:50:38;;;;;;;7.67;6.13;;;;;;;18.33;89.01;98988.63;5014608;28;20634;-68
2023/05/17 04:53:04;;;;;;;11.37;7.30;;;;;;;18.78;85.75;98993.53;5014132;28;20197;-68
2023/05/17 04:55:31;;;;;;;15.23;6.90;;;;;;;19.11;81.08;98991.28;5013865;28;20221;-68
2023/05/17 04:57:58;;;;;;;8.57;6.03;;;;;;;19.55;82.39;99005.19;5012033;28;20640;-70
2023/05/17 05:00:25;;;;;;;10.43;7.80;;;;;;;19.91;78.98;99001.50;5014100;28;20210;-69
2023/05/17 05:02:51;;;;;;;15.63;7.77;;;;;;;20.37;73.94;99038.22;5013994;28;20197;-69
2023/05/17 05:05:19;;;;;;;15.77;6.73;;;;;;;20.62;74.92;99032.81;5028730;28;20205;-73
2023/05/17 05:07:47;;;;;;;21.07;7.77;;;;;;;20.43;73.43;99031.75;5015830;28;20193;-71
2023/05/17 05:10:14;;;;;;;16.87;8.20;;;;;;;20.02;74.89;99032.78;5033543;28;20208;-71
2023/05/17 05:12:41;;;;;;;9.63;7.33;;;;;;;19.64;77.46;99019.78;5032711;28;20724;-75
2023/05/17 05:15:08;;;;;;;9.73;8.03;;;;;;;19.43;77.07;99015.38;5032724;28;20251;-73
2023/05/17 05:17:35;;;;;;;11.33;6.90;;;;;;;19.23;79.58;99024.19;5032951;28;20191;-73
2023/05/17 05:20:02;;;;;;;9.53;7.77;;;;;;;19.27;78.38;99025.31;5031769;28;20291;-71
2023/05/17 05:22:29;;;;;;;11.27;7.23;;;;;;;19.54;79.89;99025.13;5032940;28;20567;-73
2023/05/17 05:24:57;;;;;;;16.87;9.10;;;;;;;19.77;77.14;99021.97;5028267;28;20210;-73
2023/05/17 05:27:23;;;;;;;14.97;8.47;;;;;;;19.80;77.85;99030.31;5012171;28;20201;-71
2023/05/17 05:29:50;;;;;;;13.83;8.10;;;;;;;19.87;78.50;99032.75;5013287;28;20290;-70
2023/05/17 05:32:17;;;;;;;28.17;9.07;;;;;;;20.01;76.53;99039.25;5013315;28;20194;-72
2023/05/17 05:34:44;;;;;;;23.27;9.20;;;;;;;20.14;77.89;99027.97;5013025;28;20596;-73
2023/05/17 05:37:11;;;;;;;17.40;10.13;;;;;;;20.29;76.98;99022.56;5023607;28;20657;-74
2023/05/17 05:39:38;;;;;;;17.00;9.50;;;;;;;20.40;75.76;99037.69;5023699;28;20245;-75
2023/05/17 05:42:07;;;;;;;24.43;9.50;;;;;;;20.31;76.33;99039.31;5025326;28;20260;-74
2023/05/17 05:44:33;;;;;;;14.33;9.40;;;;;;;20.32;77.09;99038.22;5013086;28;20256;-77
2023/05/17 05:47:00;;;;;;;18.13;9.43;;;;;;;20.16;76.03;99047.38;5028513;28;20205;-73
2023/05/17 05:49:27;;;;;;;12.83;8.23;;;;;;;20.05;76.78;99034.97;5032493;28;20731;-73
2023/05/17 05:51:53;;;;;;;12.43;9.27;;;;;;;20.01;77.12;99026.56;5032153;28;20267;-72
2023/05/17 05:54:20;;;;;;;17.40;8.00;;;;;;;20.09;76.05;99028.78;5032842;28;20251;-73
2023/05/17 05:56:47;;;;;;;14.17;9.03;;;;;;;20.28;76.28;99026.34;5031743;28;20201;-73
2023/05/17 05:59:15;;;;;;;13.77;9.07;;;;;;;20.41;75.63;99025.81;5026459;28;20221;-72
2023/05/17 06:01:42;;;;;;;10.70;8.03;;;;;;;20.53;74.85;99018.25;5010710;28;20268;-72
2023/05/17 06:04:09;;;;;;;10.20;8.70;;;;;;;20.60;75.08;99029.59;5018541;28;20565;-72
2023/05/17 06:06:36;;;;;;;16.63;9.53;;;;;;;20.68;73.84;99031.72;5032490;28;20201;-73
2023/05/17 06:09:02;;;;;;;15.83;9.47;;;;;;;20.56;74.76;99028.50;5032475;28;20267;-72
2023/05/17 06:11:29;;;;;;;12.63;9.00;;;;;;;20.46;75.23;99034.72;5032808;28;20196;-72
2023/05/17 06:13:56;;;;;;;14.53;8.40;;;;;;;20.44;75.36;99036.06;5032654;28;20263;-72
2023/05/17 06:16:24;;;;;;;11.57;8.27;;;;;;;20.30;75.84;99038.50;5032822;28;20259;-72
2023/05/17 06:18:51;;;;;;;18.30;8.77;;;;;;;20.06;76.50;99037.34;5032468;28;20229;-73
2023/05/17 06:21:17;;;;;;;11.60;7.77;;;;;;;19.86;76.98;99044.63;5032249;28;20740;-74
2023/05/17 06:23:44;;;;;;;14.37;8.43;;;;;;;19.74;79.00;99038.66;5032178;28;20193;-74
2023/05/17 06:26:11;;;;;;;16.17;8.77;;;;;;;19.71;78.82;99041.88;5019693;28;20261;-73
2023/05/17 06:28:37;;;;;;;16.77;8.43;;;;;;;19.78;78.09;99039.75;5023710;28;20242;-74
2023/05/17 06:31:04;;;;;;;11.50;8.13;;;;;;;19.91;77.57;99036.53;5012388;28;20229;-74
2023/05/17 06:33:32;;;;;;;13.57;8.23;;;;;;;20.02;77.21;99035.47;5018350;28;20571;-75
2023/05/17 06:35:59;;;;;;;20.47;9.40;;;;;;;20.08;77.33;99026.31;5032379;28;20193;-74
2023/05/17 06:38:26;;;;;;;13.30;8.83;;;;;;;20.15;76.41;99032.28;5031678;28;20199;-72
2023/05/17 06:40:54;;;;;;;9.53;8.13;;;;;;;20.15;76.73;99026.91;5032083;28;20201;-73
2023/05/17 06:43:20;;;;;;;15.63;8.87;;;;;;;20.18;76.92;99037.16;5032594;28;20205;-73
2023/05/17 06:45:47;;;;;;;18.17;7.97;;;;;;;20.18;75.99;99042.53;5027551;28;20635;-73
2023/05/17 06:48:14;;;;;;;17.77;8.40;;;;;;;20.04;75.38;99041.41;5026804;28;20262;-74
2023/05/17 06:50:43;;;;;;;9.70;8.30;;;;;;;20.00;76.43;99053.81;5031425;28;20262;-77
2023/05/17 06:53:09;;;;;;;24.07;9.83;;;;;;;19.85;75.82;99043.78;5025305;28;20250;-73
2023/05/17 06:55:36;;;;;;;33.27;9.30;;;;;;;19.85;77.18;99048.41;5031325;28;20263;-77
2023/05/17 06:58:03;;;;;;;15.70;9.23;;;;;;;19.81;76.17;99058.09;5030816;28;20189;-75
2023/05/17 07:00:30;;;;;;;15.60;9.70;;;;;;;19.67;76.90;99057.78;5030683;28;20247;-75
2023/05/17 07:02:57;;;;;;;19.67;8.83;;;;;;;19.55;78.22;99067.16;5029925;28;20192;-74
2023/05/17 07:05:23;;;;;;;13.47;10.27;;;;;;;19.54;77.72;99073.63;5031173;28;20254;-72
2023/05/17 07:07:51;;;;;;;20.90;11.47;;;;;;;19.27;79.01;99072.94;5031555;28;20727;-72
2023/05/17 07:10:18;;;;;;;13.67;11.00;;;;;;;19.03;79.77;99077.13;5027261;28;20637;-71
2023/05/17 07:12:45;;;;;;;21.13;10.97;;;;;;;18.88;80.75;99079.72;5026599;28;20746;-71
2023/05/17 07:15:12;;;;;;;35.80;10.97;;;;;;;18.79;82.75;99065.13;5029522;28;20197;-72
2023/05/17 07:17:38;;;;;;;12.27;10.97;;;;;;;18.80;81.48;99080.19;5029530;28;20197;-74
2023/05/17 07:20:06;;;;;;;14.13;10.83;;;;;;;18.66;81.99;99079.03;5028268;28;20236;-74
2023/05/17 07:22:33;;;;;;;16.70;10.40;;;;;;;18.68;82.85;99084.94;5034623;28;20247;-74
2023/05/17 07:25:01;;;;;;;19.30;10.43;;;;;;;18.60;82.53;99072.78;5035475;28;20255;-74
2023/05/17 07:27:28;;;;;;;13.47;10.37;;;;;;;18.53;83.39;99068.69;5031583;28;20200;-75
2023/05/17 07:29:55;;;;;;;19.33;10.57;;;;;;;18.58;84.62;99068.75;5032276;28;20664;-74
2023/05/17 07:32:22;;;;;;;19.83;11.97;;;;;;;18.65;84.36;99054.00;5035431;28;20201;-73
2023/05/17 07:34:49;;;;;;;24.83;12.13;;;;;;;18.53;83.74;99045.28;5035275;28;20187;-73
2023/05/17 07:37:15;;;;;;;16.17;12.10;;;;;;;18.50;84.62;99061.94;5035309;28;20197;-71
2023/05/17 07:39:42;;;;;;;18.30;12.07;;;;;;;18.38;84.79;99065.88;5033919;28;20217;-71
2023/05/17 07:42:10;;;;;;;14.33;12.40;;;;;;;18.31;85.60;99068.75;5031603;28;20252;-74
2023/05/17 07:44:37;;;;;;;14.57;10.60;;;;;;;18.20;86.73;99044.72;5035122;28;20189;-74
2023/05/17 07:47:04;;;;;;;13.90;11.00;;;;;;;18.13;88.19;99038.75;5030677;28;20276;-73
2023/05/17 07:49:31;;;;;;;16.83;13.07;;;;;;;18.01;87.93;99033.53;5034856;28;20203;-74
2023/05/17 07:51:57;;;;;;;11.57;9.80;;;;;;;18.00;89.42;99049.91;5034900;28;20259;-73
2023/05/17 07:54:25;;;;;;;21.57;13.07;;;;;;;18.15;89.52;99061.63;5033348;28;20204;-73
2023/05/17 07:56:54;;;;;;;15.47;13.83;;;;;;;18.27;89.76;99066.81;5034866;28;20669;-73
2023/05/17 07:59:22;;;;;;;15.83;13.13;;;;;;;18.34;89.53;99067.47;5026120;28;20246;-72
2023/05/17 08:01:49;;;;;;;23.17;14.03;;;;;;;18.40;90.68;99061.06;5029809;28;20253;-64
2023/05/17 08:04:16;;;;;;;22.67;14.70;;;;;;;18.47;91.10;99073.22;5023521;28;20222;-67
2023/05/17 08:06:45;;;;;;;17.53;12.63;;;;;;;18.49;90.33;99078.34;5029705;28;20201;-66
2023/05/17 08:09:12;;;;;;;20.00;15.10;;;;;;;18.47;90.51;99067.03;5029583;28;20205;-65
2023/05/17 08:11:44;;;;;;;24.80;14.73;;;;;;;18.42;91.10;99058.94;5031020;28;20254;-68
2023/05/17 08:14:12;;;;;;;15.07;13.60;;;;;;;18.30;92.30;99060.94;5026661;28;20264;-66
2023/05/17 08:16:40;;;;;;;19.23;14.27;;;;;;;18.25;93.00;99063.59;5029758;28;20251;-67
2023/05/17 08:19:07;;;;;;;16.40;13.87;;;;;;;18.14;93.39;99051.94;5028506;28;20309;-66
2023/05/17 08:21:36;;;;;;;20.13;14.73;;;;;;;17.99;94.99;99032.16;5029941;28;20197;-68
2023/05/17 08:24:02;;;;;;;20.53;16.50;;;;;;;17.91;95.32;99029.94;5029255;28;20197;-68
2023/05/17 08:26:29;;;;;;;19.60;15.67;;;;;;;17.87;96.51;99035.00;5019616;28;20255;-69
2023/05/17 08:28:56;;;;;;;27.17;16.20;;;;;;;17.82;96.99;99034.13;5022582;28;20284;-68
2023/05/17 08:31:23;;;;;;;21.77;16.67;;;;;;;17.84;96.55;99040.09;5030383;28;20228;-66
2023/05/17 08:33:51;;;;;;;23.53;17.20;;;;;;;17.83;97.50;99038.44;5025641;28;20262;-66
2023/05/17 08:36:20;;;;;;;26.13;15.70;;;;;;;17.89;97.69;99043.63;5029151;28;20193;-69
2023/05/17 08:38:47;;;;;;;23.03;15.47;;;;;;;17.93;97.59;99035.88;5030114;28;20208;-67
2023/05/17 08:41:13;;;;;;;23.93;16.87;;;;;;;17.92;97.47;99047.69;5033232;28;20229;-68
2023/05/17 08:43:41;;;;;;;22.07;16.47;;;;;;;17.93;97.38;99060.06;5033743;28;20193;-69
2023/05/17 08:46:10;;;;;;;21.03;16.30;;;;;;;17.96;98.33;99063.03;5033628;28;20196;-67
2023/05/17 08:48:40;;;;;;;20.20;15.17;;;;;;;17.96;97.36;99076.47;5015008;28;20196;-66
2023/05/17 08:51:10;;;;;;;23.20;16.47;;;;;;;17.97;96.92;99078.09;5013890;28;20198;-67
2023/05/17 08:53:37;;;;;;;24.37;16.10;;;;;;;17.95;96.66;99080.25;5013774;28;20198;-65
2023/05/17 08:56:05;;;;;;;21.93;14.90;;;;;;;17.89;96.93;99075.84;5020796;28;20208;-66
2023/05/17 08:58:36;;;;;;;27.80;16.70;;;;;;;17.80;97.19;99082.75;5031834;28;20238;-66
2023/05/17 09:01:04;;;;;;;23.10;16.90;;;;;;;17.75;99.20;99084.56;5033388;28;20300;-65
2023/05/17 09:03:34;;;;;;;23.43;17.33;;;;;;;17.70;99.90;99087.19;5032252;28;20201;-66
2023/05/17 09:06:01;;;;;;;33.27;17.73;;;;;;;17.54;100.00;99083.53;5031785;28;20703;-65
2023/05/17 09:08:31;;;;;;;26.63;18.03;;;;;;;17.40;100.00;99076.06;5032587;28;20196;-64
2023/05/17 09:10:59;;;;;;;29.53;17.17;;;;;;;17.27;100.00;99071.09;5033272;28;20255;-65
2023/05/17 09:13:25;;;;;;;25.97;18.97;;;;;;;17.24;100.00;99067.03;5033246;28;20189;-65
2023/05/17 09:15:53;;;;;;;22.83;18.97;;;;;;;17.17;100.00;99070.94;5032812;28;20203;-65
2023/05/17 09:18:21;;;;;;;24.37;17.43;;;;;;;16.97;100.00;99066.13;5031827;28;20209;-68
2023/05/17 09:20:50;;;;;;;22.53;18.77;;;;;;;16.84;100.00;99060.28;5018171;28;20221;-66
2023/05/17 09:23:21;;;;;;;24.17;17.10;;;;;;;16.71;100.00;99047.22;5013122;28;20260;-65
2023/05/17 09:25:49;;;;;;;25.97;18.40;;;;;;;16.79;100.00;99036.06;5019070;28;20182;-68
2023/05/17 09:28:18;;;;;;;34.70;21.13;;;;;;;16.83;100.00;99040.72;5032217;28;20197;-65
2023/05/17 09:30:47;;;;;;;30.53;19.20;;;;;;;16.86;100.00;99042.09;5032864;28;20665;-66
2023/05/17 09:33:14;;;;;;;29.37;21.07;;;;;;;16.90;100.00;99027.13;5031670;28;20200;-65
2023/05/17 09:35:42;;;;;;;25.67;19.73;;;;;;;16.97;100.00;99030.41;5030518;28;20678;-65
2023/05/17 09:38:11;;;;;;;24.57;18.17;;;;;;;17.04;100.00;99039.91;5032522;28;20252;-67
2023/05/17 09:40:39;;;;;;;27.23;17.80;;;;;;;17.09;100.00;99045.34;5032311;28;20221;-66
2023/05/17 09:43:07;;;;;;;26.20;17.83;;;;;;;17.20;100.00;99046.28;5032389;28;20241;-65
2023/05/17 09:45:35;;;;;;;21.20;17.37;;;;;;;17.22;100.00;99057.56;5032373;28;20685;-65
2023/05/17 09:48:13;;;;;;;27.17;17.20;;;;;;;17.18;100.00;99061.81;5032464;28;20299;-66
2023/05/17 09:50:45;;;;;;;18.90;16.47;;;;;;;17.21;100.00;99055.97;5032480;28;20230;-66
2023/05/17 09:53:28;;;;;;;18.97;17.03;;;;;;;17.29;100.00;99050.16;5032102;28;20649;-67
2023/05/17 09:55:57;;;;;;;24.67;18.20;;;;;;;17.35;100.00;99055.34;5032657;28;20203;-64
2023/05/17 09:58:26;;;;;;;21.43;18.23;;;;;;;17.33;100.00;99048.59;5032617;28;20199;-65
2023/05/17 10:00:54;;;;;;;26.77;18.80;;;;;;;17.40;100.00;99055.44;5032160;28;20277;-65
2023/05/17 10:03:21;;;;;;;24.33;19.97;;;;;;;17.45;100.00;99052.81;5031757;28;20734;-66
2023/05/17 10:05:52;;;;;;;26.37;20.37;;;;;;;17.45;100.00;99058.19;5012787;28;20198;-65
2023/05/17 10:08:22;;;;;;;23.90;19.97;;;;;;;17.49;100.00;99050.44;5013061;28;20304;-65
2023/05/17 10:10:50;;;;;;;23.63;19.53;;;;;;;17.47;100.00;99055.25;5012647;28;20194;-64
2023/05/17 10:13:23;;;;;;;26.60;20.17;;;;;;;17.46;100.00;99053.63;5012374;28;20289;-65
2023/05/17 10:15:53;;;;;;;25.23;18.10;;;;;;;17.40;100.00;99051.91;5011926;28;20272;-65
2023/05/17 10:18:20;;;;;;;22.43;15.17;;;;;;;17.45;100.00;99057.38;5012383;28;20198;-64
2023/05/17 10:20:48;;;;;;;16.93;12.80;;;;;;;17.47;100.00;99049.88;5033455;28;20228;-66
2023/05/17 10:23:16;;;;;;;15.80;11.67;;;;;;;17.53;100.00;99047.00;5051375;28;20262;-64
2023/05/17 10:25:43;;;;;;;14.93;12.73;;;;;;;17.59;99.63;99037.09;5051907;28;20224;-64
2023/05/17 10:28:12;;;;;;;16.37;13.03;;;;;;;17.68;99.36;99043.69;5050950;28;20696;-64
2023/05/17 10:30:40;;;;;;;18.17;13.93;;;;;;;17.69;100.00;99042.59;5051612;28;20312;-67
2023/05/17 10:33:09;;;;;;;15.93;14.33;;;;;;;17.75;100.00;99041.59;5051167;28;20626;-66
2023/05/17 10:35:38;;;;;;;17.87;13.60;;;;;;;17.72;100.00;99029.47;5051779;28;20196;-67
2023/05/17 10:38:05;;;;;;;20.63;13.37;;;;;;;17.78;100.00;99030.34;5051582;28;20727;-66
2023/05/17 10:40:32;;;;;;;17.17;13.60;;;;;;;17.78;100.00;99028.47;5051657;28;20228;-66
2023/05/17 10:42:59;;;;;;;21.83;14.33;;;;;;;17.83;100.00;99030.38;5051259;28;20199;-65
2023/05/17 10:45:27;;;;;;;15.93;13.50;;;;;;;17.85;100.00;99020.22;5051586;28;20202;-64
2023/05/17 10:47:54;;;;;;;18.73;14.37;;;;;;;17.87;100.00;99024.25;5051375;28;20197;-65
2023/05/17 10:50:24;;;;;;;17.00;14.10;;;;;;;17.93;100.00;99031.28;5051404;28;20217;-65
2023/05/17 10:52:54;;;;;;;17.87;15.00;;;;;;;17.87;99.91;99042.25;5051160;28;20191;-67
2023/05/17 10:55:23;;;;;;;17.97;15.20;;;;;;;17.85;100.00;99037.13;5039118;28;20289;-67
2023/05/17 10:58:15;;;;;;;16.00;14.50;;;;;;;17.92;100.00;99040.44;5011218;28;20190;-65
2023/05/17 11:00:44;;;;;;;18.33;14.90;;;;;;;17.96;99.88;99033.47;5014161;28;20210;-66
2023/05/17 11:03:12;;;;;;;18.53;15.97;;;;;;;17.98;99.23;99031.38;5011428;28;20654;-67
2023/05/17 11:05:42;;;;;;;26.03;16.67;;;;;;;18.02;99.35;99031.66;5029846;28;20193;-66
2023/05/17 11:08:14;;;;;;;20.53;16.77;;;;;;;18.01;98.99;99027.34;5031576;28;20284;-65
2023/05/17 11:11:07;;;;;;;18.87;16.43;;;;;;;18.06;98.74;99024.69;5031513;28;20664;-65
2023/05/17 11:13:34;;;;;;;23.23;16.77;;;;;;;18.01;97.70;99030.03;5031073;28;20186;-66
2023/05/17 11:16:04;;;;;;;23.80;16.93;;;;;;;17.98;99.52;99025.16;5031388;28;20197;-65
2023/05/17 11:18:46;;;;;;;18.83;16.83;;;;;;;17.92;99.72;99020.81;5031573;28;20197;-65
2023/05/17 11:21:15;;;;;;;18.80;16.90;;;;;;;17.77;100.00;99012.59;5031386;28;20299;-67
2023/05/17 11:23:43;;;;;;;21.17;18.33;;;;;;;17.71;100.00;99005.53;5030794;28;20575;-65
2023/05/17 11:26:16;;;;;;;24.00;17.33;;;;;;;17.77;100.00;99017.97;5031685;28;20263;-67